VAM Template | Jonatha

Virtual Airlines Manager! A new look to your va. By: Jonatha Silva




 METAR ET TAF INFORMATION
METAR FOR TFFR
ADDS - METARS form results

(2256 UTC 25 January 2020)
Data provider http://aviationweather.gov/metar/data/
 
METAR text: TFFR 252230Z AUTO 13005KT 110V200 9999 BKN046 26/22 Q1014
Conditions at: TFFR (LE RAIZET , GP) observed 2230 UTC 25 January 2020
Temperature: 26.0°C (79°F)
Dewpoint: 22.0°C (72°F) [RH = 79%]
Pressure (altimeter): 29.94 inches Hg (1014.0 mb)
Winds: from the SE (130 degrees) at 6 MPH (5 knots; 2.6 m/s)
Visibility: 6 or more miles (10+ km)
Ceiling: 4600 feet AGL
Clouds: broken clouds at 4600 feet AGL
Weather: no significant weather observed at this time

METAR text: TFFR 252200Z AUTO 12004KT 9999 FEW046 26/22 Q1014
Conditions at: TFFR (LE RAIZET , GP) observed 2200 UTC 25 January 2020
Temperature: 26.0°C (79°F)
Dewpoint: 22.0°C (72°F) [RH = 79%]
Pressure (altimeter): 29.94 inches Hg (1014.0 mb)
Winds: from the ESE (120 degrees) at 5 MPH (4 knots; 2.1 m/s)
Visibility: 6 or more miles (10+ km)
Ceiling: at least 12,000 feet AGL
Clouds: few clouds at 4600 feet AGL
Weather: no significant weather observed at this time

 AÉROPORT DE AÉROPORT

 INFORMATIONS DE PISTE
Piste 12 Longueur de la piste 11499 ft Largeur de la piste 148 ft
Élévation de la piste 5 ft Seuil de la piste déplacés 1312 ft Runway heading 101
Piste 30 Longueur de la piste 11499 ft Largeur de la piste 148 ft
Élévation de la piste 32 ft Seuil de la piste déplacés 820 ft Runway heading 281

 AÉROPORT FRÉQUENCES
Type APP Nom RAIZET APP Féquence 121.3 MHZ
Type ATIS Nom ATIS Féquence 127.6 MHZ
Type GND Nom GND Féquence 121.85 MHZ
Type TWR Nom RAIZET TWR Féquence 118.4 MHZ

 SIDA DE NAVIGATION
Type VOR-DME Nom Pointe A Pitre Féquence 112900 KHZ
Type NDB Nom Pointe A Pitre Féquence 385 KHZ